Time,TemperatureF,DewpointF,PressureIn,WindDirection,WindDirectionDegrees,WindSpeedMPH,WindSpeedGustMPH,Humidity,HourlyPrecipIn,Conditions,Clouds,dailyrainin,SoftwareType,DateUTC
2013-07-24 09:10:00,85.7,75.2,29.97,SE,125,7.0,10.0,71,0.00,,,0.00,Wunderground v.1.15,2013-07-24 13:10:00,
2013-07-24 09:20:00,86.5,75.1,29.97,East,90,7.0,7.0,69,0.00,,,0.00,Wunderground v.1.15,2013-07-24 13:20:00,
2013-07-24 10:10:00,87.4,75.1,29.98,SE,128,7.0,7.0,67,0.00,,,0.00,Wunderground v.1.15,2013-07-24 14:10:00,
2013-07-24 10:20:00,87.6,75.7,29.98,East,80,5.0,9.0,68,0.00,,,0.00,Wunderground v.1.15,2013-07-24 14:20:00,
2013-07-24 10:30:00,87.6,76.2,29.98,ENE,76,6.0,9.0,69,0.00,,,0.00,Wunderground v.1.15,2013-07-24 14:30:00,
2013-07-24 10:40:00,88.2,75.4,29.98,ESE,106,5.0,5.0,66,0.00,,,0.00,Wunderground v.1.15,2013-07-24 14:40:00,
2013-07-24 10:50:00,88.0,75.7,29.98,East,80,6.0,6.0,67,0.00,,,0.00,Wunderground v.1.15,2013-07-24 14:50:00,
2013-07-24 11:00:00,88.0,74.8,29.98,East,99,6.0,6.0,65,0.00,,,0.00,Wunderground v.1.15,2013-07-24 15:00:00,
2013-07-24 11:10:00,88.8,75.0,29.98,ESE,107,7.0,7.0,64,0.00,,,0.00,Wunderground v.1.15,2013-07-24 15:10:00,
2013-07-24 11:20:00,88.8,75.0,29.98,SE,130,7.0,7.0,64,0.00,,,0.00,Wunderground v.1.15,2013-07-24 15:20:00,
2013-07-24 11:30:00,88.6,75.3,29.98,ESE,109,6.0,8.0,65,0.00,,,0.00,Wunderground v.1.15,2013-07-24 15:30:00,
2013-07-24 11:40:00,88.2,75.9,29.98,ENE,70,7.0,7.0,67,0.00,,,0.00,Wunderground v.1.15,2013-07-24 15:40:00,
2013-07-24 11:50:00,88.0,75.7,29.98,ESE,113,6.0,6.0,67,0.00,,,0.00,Wunderground v.1.15,2013-07-24 15:50:00,
2013-07-24 12:00:00,88.2,75.4,29.98,ESE,109,6.0,9.0,66,0.00,,,0.00,Wunderground v.1.15,2013-07-24 16:00:00,
2013-07-24 12:10:00,88.6,75.3,29.98,East,96,6.0,6.0,65,0.00,,,0.00,Wunderground v.1.15,2013-07-24 16:10:00,
2013-07-24 12:20:00,87.4,74.6,29.98,ESE,106,6.0,7.0,66,0.00,,,0.00,Wunderground v.1.15,2013-07-24 16:20:00,
2013-07-24 12:30:00,87.6,75.3,29.98,ENE,67,3.0,5.0,67,0.00,,,0.00,Wunderground v.1.15,2013-07-24 16:30:00,
2013-07-24 12:40:00,88.8,75.5,29.98,ESE,112,4.0,4.0,65,0.00,,,0.00,Wunderground v.1.15,2013-07-24 16:40:00,
2013-07-24 12:50:00,87.6,75.3,29.98,East,92,5.0,5.0,67,0.00,,,0.00,Wunderground v.1.15,2013-07-24 16:50:00,
2013-07-24 13:00:00,85.9,75.4,29.98,ENE,63,6.0,6.0,71,0.00,,,0.00,Wunderground v.1.15,2013-07-24 17:00:00,
2013-07-24 13:10:00,82.8,74.8,29.98,NE,37,8.0,17.0,77,0.00,,,0.00,Wunderground v.1.15,2013-07-24 17:10:00,
2013-07-24 13:20:00,82.0,75.6,29.98,ENE,78,10.0,10.0,81,0.00,,,0.00,Wunderground v.1.15,2013-07-24 17:20:00,
2013-07-24 13:30:00,81.8,75.8,29.98,ESE,115,7.0,9.0,82,0.00,,,0.00,Wunderground v.1.15,2013-07-24 17:30:00,
2013-07-24 13:40:00,82.4,75.2,29.97,ENE,58,5.0,7.0,79,0.00,,,0.00,Wunderground v.1.15,2013-07-24 17:40:00,
2013-07-24 13:50:00,83.0,74.6,29.96,East,82,6.0,6.0,76,0.00,,,0.00,Wunderground v.1.15,2013-07-24 17:50:00,
2013-07-24 14:00:00,84.5,74.9,29.96,ENE,68,4.0,4.0,73,0.00,,,0.00,Wunderground v.1.15,2013-07-24 18:00:00,
2013-07-24 14:10:00,84.7,74.3,29.96,East,99,4.0,4.0,71,0.00,,,0.00,Wunderground v.1.15,2013-07-24 18:10:00,
2013-07-24 14:20:00,85.7,74.8,29.95,ESE,118,3.0,4.0,70,0.00,,,0.00,Wunderground v.1.15,2013-07-24 18:20:00,
2013-07-24 14:30:00,86.3,74.0,29.95,East,95,5.0,6.0,67,0.00,,,0.00,Wunderground v.1.15,2013-07-24 18:30:00,
2013-07-24 14:40:00,84.3,73.9,29.95,ENE,76,4.0,4.0,71,0.00,,,0.00,Wunderground v.1.15,2013-07-24 18:40:00,
2013-07-24 14:50:00,83.6,74.0,29.94,ENE,74,4.0,6.0,73,0.00,,,0.00,Wunderground v.1.15,2013-07-24 18:50:00,
2013-07-24 15:00:00,83.4,75.8,29.94,NE,36,4.0,6.0,78,0.00,,,0.00,Wunderground v.1.15,2013-07-24 19:00:00,
2013-07-24 15:10:00,83.8,75.4,29.94,North,7,7.0,9.0,76,0.00,,,0.00,Wunderground v.1.15,2013-07-24 19:10:00,
2013-07-24 15:20:00,84.7,75.9,29.94,ENE,76,5.0,7.0,75,0.00,,,0.00,Wunderground v.1.15,2013-07-24 19:20:00,
2013-07-24 15:30:00,84.0,74.8,29.94,East,88,8.0,8.0,74,0.00,,,0.00,Wunderground v.1.15,2013-07-24 19:30:00,
2013-07-24 15:40:00,84.7,75.1,29.93,ESE,116,6.0,7.0,73,0.00,,,0.00,Wunderground v.1.15,2013-07-24 19:40:00,
2013-07-24 15:50:00,84.3,74.3,29.93,SSE,147,6.0,6.0,72,0.00,,,0.00,Wunderground v.1.15,2013-07-24 19:50:00,
2013-07-24 16:00:00,85.1,74.2,29.93,East,82,6.0,9.0,70,0.00,,,0.00,Wunderground v.1.15,2013-07-24 20:00:00,
2013-07-24 16:10:00,85.3,74.0,29.93,ESE,115,7.0,7.0,69,0.00,,,0.00,Wunderground v.1.15,2013-07-24 20:10:00,
2013-07-24 16:20:00,85.1,73.8,29.92,ESE,115,7.0,7.0,69,0.00,,,0.00,Wunderground v.1.15,2013-07-24 20:20:00,
2013-07-24 16:30:00,84.9,74.4,29.92,ESE,109,7.0,7.0,71,0.00,,,0.00,Wunderground v.1.15,2013-07-24 20:30:00,
2013-07-24 16:40:00,85.3,74.4,29.92,East,98,7.0,7.0,70,0.00,,,0.00,Wunderground v.1.15,2013-07-24 20:40:00,
2013-07-24 16:50:00,85.1,74.2,29.92,ESE,105,7.0,11.0,70,0.00,,,0.00,Wunderground v.1.15,2013-07-24 20:50:00,
2013-07-24 17:00:00,84.7,74.3,29.92,East,90,7.0,7.0,71,0.00,,,0.00,Wunderground v.1.15,2013-07-24 21:00:00,
2013-07-24 17:10:00,84.7,74.3,29.92,ENE,68,7.0,7.0,71,0.00,,,0.00,Wunderground v.1.15,2013-07-24 21:10:00,
2013-07-24 17:20:00,84.1,74.1,29.92,ENE,65,7.0,7.0,72,0.00,,,0.00,Wunderground v.1.15,2013-07-24 21:20:00,
2013-07-24 17:30:00,83.8,74.6,29.92,East,90,7.0,7.0,74,0.00,,,0.00,Wunderground v.1.15,2013-07-24 21:30:00,
2013-07-24 17:40:00,83.4,74.2,29.92,ENE,78,5.0,5.0,74,0.00,,,0.00,Wunderground v.1.15,2013-07-24 21:40:00,
2013-07-24 17:50:00,83.2,74.8,29.93,East,90,6.0,8.0,76,0.00,,,0.00,Wunderground v.1.15,2013-07-24 21:50:00,
2013-07-24 18:00:00,82.8,74.5,29.93,ENE,76,8.0,8.0,76,0.00,,,0.00,Wunderground v.1.15,2013-07-24 22:00:00,
2013-07-24 18:10:00,82.4,74.5,29.93,East,91,6.0,6.0,77,0.00,,,0.00,Wunderground v.1.15,2013-07-24 22:10:00,
2013-07-24 18:20:00,82.2,73.9,29.93,East,79,6.0,6.0,76,0.00,,,0.00,Wunderground v.1.15,2013-07-24 22:20:00,
2013-07-24 18:30:00,82.0,74.1,29.93,ENE,77,5.0,10.0,77,0.00,,,0.00,Wunderground v.1.15,2013-07-24 22:30:00,
2013-07-24 18:40:00,81.6,74.5,29.93,East,84,6.0,6.0,79,0.00,,,0.00,Wunderground v.1.15,2013-07-24 22:40:00,
2013-07-24 18:50:00,81.2,74.4,29.94,NE,56,4.0,7.0,80,0.00,,,0.00,Wunderground v.1.15,2013-07-24 22:50:00,
2013-07-24 19:00:00,80.9,74.5,29.94,ENE,71,5.0,5.0,81,0.00,,,0.00,Wunderground v.1.15,2013-07-24 23:00:00,
2013-07-24 19:10:00,80.5,74.5,29.94,ENE,59,3.0,3.0,82,0.00,,,0.00,Wunderground v.1.15,2013-07-24 23:10:00,
2013-07-24 19:20:00,80.3,74.3,29.95,NE,50,3.0,3.0,82,0.00,,,0.00,Wunderground v.1.15,2013-07-24 23:20:00,
2013-07-24 19:30:00,80.1,74.5,29.95,NE,53,3.0,3.0,83,0.00,,,0.00,Wunderground v.1.15,2013-07-24 23:30:00,
2013-07-24 19:40:00,79.8,74.5,29.95,NE,53,2.0,2.0,84,0.00,,,0.00,Wunderground v.1.15,2013-07-24 23:40:00,
2013-07-24 19:50:00,79.6,74.3,29.95,NE,53,3.0,3.0,84,0.00,,,0.00,Wunderground v.1.15,2013-07-24 23:50:00,
2013-07-24 20:00:00,79.4,74.5,29.95,NE,47,2.0,3.0,85,0.00,,,0.00,Wunderground v.1.15,2013-07-25 00:00:00,